sensor_id;sensor_type;location;lat;lon;timestamp;temperature;humidity
12504;DHT22;6316;48.118;-1.690;2022-07-22T00:00:32;19.60;93.50
12504;DHT22;6316;48.118;-1.690;2022-07-22T00:02:57;19.60;93.60
12504;DHT22;6316;48.118;-1.690;2022-07-22T00:05:23;19.60;93.70
12504;DHT22;6316;48.118;-1.690;2022-07-22T00:07:49;19.60;93.70
12504;DHT22;6316;48.118;-1.690;2022-07-22T00:10:14;19.50;93.70
12504;DHT22;6316;48.118;-1.690;2022-07-22T00:12:40;19.50;93.70
12504;DHT22;6316;48.118;-1.690;2022-07-22T00:15:07;19.50;93.70
12504;DHT22;6316;48.118;-1.690;2022-07-22T00:17:33;19.50;93.80
12504;DHT22;6316;48.118;-1.690;2022-07-22T00:19:58;19.50;93.80
12504;DHT22;6316;48.118;-1.690;2022-07-22T00:22:24;19.40;93.80
12504;DHT22;6316;48.118;-1.690;2022-07-22T00:24:50;19.40;93.90
12504;DHT22;6316;48.118;-1.690;2022-07-22T00:27:15;19.40;93.90
12504;DHT22;6316;48.118;-1.690;2022-07-22T00:29:41;19.40;94.00
12504;DHT22;6316;48.118;-1.690;2022-07-22T00:32:06;19.40;94.00
12504;DHT22;6316;48.118;-1.690;2022-07-22T00:34:32;19.40;94.00
12504;DHT22;6316;48.118;-1.690;2022-07-22T00:36:58;19.30;94.00
12504;DHT22;6316;48.118;-1.690;2022-07-22T00:39:24;19.30;94.10
12504;DHT22;6316;48.118;-1.690;2022-07-22T00:41:49;19.30;94.10
12504;DHT22;6316;48.118;-1.690;2022-07-22T00:44:15;19.30;94.10
12504;DHT22;6316;48.118;-1.690;2022-07-22T00:46:41;19.30;94.20
12504;DHT22;6316;48.118;-1.690;2022-07-22T00:49:08;19.30;94.20
12504;DHT22;6316;48.118;-1.690;2022-07-22T00:51:34;19.30;94.20
12504;DHT22;6316;48.118;-1.690;2022-07-22T00:54:02;19.30;94.30
12504;DHT22;6316;48.118;-1.690;2022-07-22T00:56:29;19.20;94.30
12504;DHT22;6316;48.118;-1.690;2022-07-22T00:58:58;19.20;94.30
12504;DHT22;6316;48.118;-1.690;2022-07-22T01:01:25;19.20;94.30
12504;DHT22;6316;48.118;-1.690;2022-07-22T01:03:51;19.20;94.30
12504;DHT22;6316;48.118;-1.690;2022-07-22T01:06:17;19.20;94.40
12504;DHT22;6316;48.118;-1.690;2022-07-22T01:08:43;19.20;94.40
12504;DHT22;6316;48.118;-1.690;2022-07-22T01:11:13;19.20;94.80
12504;DHT22;6316;48.118;-1.690;2022-07-22T01:13:40;19.20;94.50
12504;DHT22;6316;48.118;-1.690;2022-07-22T01:16:07;19.10;94.50
12504;DHT22;6316;48.118;-1.690;2022-07-22T01:18:33;19.10;94.50
12504;DHT22;6316;48.118;-1.690;2022-07-22T01:20:59;19.10;94.50
12504;DHT22;6316;48.118;-1.690;2022-07-22T01:23:25;19.10;94.60
12504;DHT22;6316;48.118;-1.690;2022-07-22T01:25:51;19.10;94.60
12504;DHT22;6316;48.118;-1.690;2022-07-22T01:28:16;19.10;94.60
12504;DHT22;6316;48.118;-1.690;2022-07-22T01:30:42;19.10;94.60
12504;DHT22;6316;48.118;-1.690;2022-07-22T01:33:08;19.10;94.60
12504;DHT22;6316;48.118;-1.690;2022-07-22T01:35:34;19.10;94.70
12504;DHT22;6316;48.118;-1.690;2022-07-22T01:37:59;19.10;94.70
12504;DHT22;6316;48.118;-1.690;2022-07-22T01:40:25;19.10;94.70
12504;DHT22;6316;48.118;-1.690;2022-07-22T01:42:51;19.10;94.70
12504;DHT22;6316;48.118;-1.690;2022-07-22T01:45:17;19.10;94.70
12504;DHT22;6316;48.118;-1.690;2022-07-22T01:47:42;19.10;94.70
12504;DHT22;6316;48.118;-1.690;2022-07-22T01:50:10;19.10;94.80
12504;DHT22;6316;48.118;-1.690;2022-07-22T01:52:37;19.10;94.70
12504;DHT22;6316;48.118;-1.690;2022-07-22T01:55:05;19.00;94.70
12504;DHT22;6316;48.118;-1.690;2022-07-22T01:57:30;19.10;94.80
12504;DHT22;6316;48.118;-1.690;2022-07-22T01:59:56;19.00;94.80
12504;DHT22;6316;48.118;-1.690;2022-07-22T02:02:21;19.10;94.80
12504;DHT22;6316;48.118;-1.690;2022-07-22T02:04:47;19.00;94.80
12504;DHT22;6316;48.118;-1.690;2022-07-22T02:07:13;19.00;94.80
12504;DHT22;6316;48.118;-1.690;2022-07-22T02:09:38;19.00;94.80
12504;DHT22;6316;48.118;-1.690;2022-07-22T02:12:04;19.00;94.90
12504;DHT22;6316;48.118;-1.690;2022-07-22T02:14:30;19.00;94.90
12504;DHT22;6316;48.118;-1.690;2022-07-22T02:16:56;19.00;94.90
12504;DHT22;6316;48.118;-1.690;2022-07-22T02:19:21;19.00;95.00
12504;DHT22;6316;48.118;-1.690;2022-07-22T02:21:47;19.00;95.00
12504;DHT22;6316;48.118;-1.690;2022-07-22T02:24:13;19.00;95.00
12504;DHT22;6316;48.118;-1.690;2022-07-22T02:26:39;19.00;95.10
12504;DHT22;6316;48.118;-1.690;2022-07-22T02:29:05;18.90;95.10
12504;DHT22;6316;48.118;-1.690;2022-07-22T02:31:30;19.00;95.10
12504;DHT22;6316;48.118;-1.690;2022-07-22T02:33:56;18.90;95.10
12504;DHT22;6316;48.118;-1.690;2022-07-22T02:36:21;19.00;95.20
12504;DHT22;6316;48.118;-1.690;2022-07-22T02:38:47;18.90;95.20
12504;DHT22;6316;48.118;-1.690;2022-07-22T02:41:13;18.90;95.20
12504;DHT22;6316;48.118;-1.690;2022-07-22T02:43:38;18.90;95.20
12504;DHT22;6316;48.118;-1.690;2022-07-22T02:46:04;18.90;95.30
12504;DHT22;6316;48.118;-1.690;2022-07-22T02:48:30;18.90;95.30
12504;DHT22;6316;48.118;-1.690;2022-07-22T02:50:56;18.90;95.30
12504;DHT22;6316;48.118;-1.690;2022-07-22T02:53:21;18.90;95.40
12504;DHT22;6316;48.118;-1.690;2022-07-22T02:55:47;18.80;95.40
12504;DHT22;6316;48.118;-1.690;2022-07-22T02:58:12;18.80;95.40
12504;DHT22;6316;48.118;-1.690;2022-07-22T03:00:38;18.80;95.40
12504;DHT22;6316;48.118;-1.690;2022-07-22T03:03:04;18.80;95.50
12504;DHT22;6316;48.118;-1.690;2022-07-22T03:05:30;18.80;95.50
12504;DHT22;6316;48.118;-1.690;2022-07-22T03:07:56;18.80;95.50
12504;DHT22;6316;48.118;-1.690;2022-07-22T03:10:22;18.80;95.50
12504;DHT22;6316;48.118;-1.690;2022-07-22T03:12:47;18.80;95.50
12504;DHT22;6316;48.118;-1.690;2022-07-22T03:15:13;18.80;95.60
12504;DHT22;6316;48.118;-1.690;2022-07-22T03:17:39;18.80;95.60
12504;DHT22;6316;48.118;-1.690;2022-07-22T03:20:06;18.80;95.60
12504;DHT22;6316;48.118;-1.690;2022-07-22T03:22:32;18.80;95.60
12504;DHT22;6316;48.118;-1.690;2022-07-22T03:24:58;18.80;95.60
12504;DHT22;6316;48.118;-1.690;2022-07-22T03:27:24;18.80;95.60
12504;DHT22;6316;48.118;-1.690;2022-07-22T03:29:49;18.80;95.70
12504;DHT22;6316;48.118;-1.690;2022-07-22T03:32:15;18.80;95.70
12504;DHT22;6316;48.118;-1.690;2022-07-22T03:34:41;18.80;95.70
12504;DHT22;6316;48.118;-1.690;2022-07-22T03:37:07;18.80;95.70
12504;DHT22;6316;48.118;-1.690;2022-07-22T03:39:33;18.90;95.80
12504;DHT22;6316;48.118;-1.690;2022-07-22T03:41:59;18.90;95.80
12504;DHT22;6316;48.118;-1.690;2022-07-22T03:44:24;18.90;95.90
12504;DHT22;6316;48.118;-1.690;2022-07-22T03:46:50;18.90;95.90
12504;DHT22;6316;48.118;-1.690;2022-07-22T03:49:16;18.90;95.90
12504;DHT22;6316;48.118;-1.690;2022-07-22T03:51:41;18.90;95.90
12504;DHT22;6316;48.118;-1.690;2022-07-22T03:54:07;18.90;96.00
12504;DHT22;6316;48.118;-1.690;2022-07-22T03:56:33;18.90;96.00
12504;DHT22;6316;48.118;-1.690;2022-07-22T03:58:58;18.90;96.00
12504;DHT22;6316;48.118;-1.690;2022-07-22T04:01:24;18.90;96.10
12504;DHT22;6316;48.118;-1.690;2022-07-22T04:03:50;18.90;96.10
12504;DHT22;6316;48.118;-1.690;2022-07-22T04:06:16;18.90;96.10
12504;DHT22;6316;48.118;-1.690;2022-07-22T04:08:41;18.90;96.10
12504;DHT22;6316;48.118;-1.690;2022-07-22T04:11:07;18.90;96.10
12504;DHT22;6316;48.118;-1.690;2022-07-22T04:13:33;18.90;96.10
12504;DHT22;6316;48.118;-1.690;2022-07-22T04:15:58;18.90;96.20
12504;DHT22;6316;48.118;-1.690;2022-07-22T04:18:24;18.90;96.20
12504;DHT22;6316;48.118;-1.690;2022-07-22T04:20:50;18.80;96.20
12504;DHT22;6316;48.118;-1.690;2022-07-22T04:23:16;18.80;96.20
12504;DHT22;6316;48.118;-1.690;2022-07-22T04:25:42;18.90;96.20
12504;DHT22;6316;48.118;-1.690;2022-07-22T04:28:07;18.80;96.20
12504;DHT22;6316;48.118;-1.690;2022-07-22T04:30:33;18.80;96.20
12504;DHT22;6316;48.118;-1.690;2022-07-22T04:32:58;18.80;96.20
12504;DHT22;6316;48.118;-1.690;2022-07-22T04:35:24;18.80;96.30
12504;DHT22;6316;48.118;-1.690;2022-07-22T04:37:50;18.80;96.30
12504;DHT22;6316;48.118;-1.690;2022-07-22T04:40:16;18.80;96.30
12504;DHT22;6316;48.118;-1.690;2022-07-22T04:42:42;18.80;96.30
12504;DHT22;6316;48.118;-1.690;2022-07-22T04:45:08;18.80;96.30
12504;DHT22;6316;48.118;-1.690;2022-07-22T04:47:34;18.80;96.30
12504;DHT22;6316;48.118;-1.690;2022-07-22T04:50:00;18.80;96.40
12504;DHT22;6316;48.118;-1.690;2022-07-22T04:52:25;18.80;96.40
12504;DHT22;6316;48.118;-1.690;2022-07-22T04:54:51;18.80;96.40
12504;DHT22;6316;48.118;-1.690;2022-07-22T04:57:17;18.90;96.40
12504;DHT22;6316;48.118;-1.690;2022-07-22T04:59:42;18.90;96.50
12504;DHT22;6316;48.118;-1.690;2022-07-22T05:02:08;18.90;96.50
12504;DHT22;6316;48.118;-1.690;2022-07-22T05:04:34;18.90;96.50
12504;DHT22;6316;48.118;-1.690;2022-07-22T05:07:00;18.90;96.50
12504;DHT22;6316;48.118;-1.690;2022-07-22T05:09:26;18.90;96.50
12504;DHT22;6316;48.118;-1.690;2022-07-22T05:11:51;18.90;96.50
12504;DHT22;6316;48.118;-1.690;2022-07-22T05:14:17;18.90;96.50
12504;DHT22;6316;48.118;-1.690;2022-07-22T05:16:43;18.90;96.60
12504;DHT22;6316;48.118;-1.690;2022-07-22T05:19:08;18.90;96.60
12504;DHT22;6316;48.118;-1.690;2022-07-22T05:21:34;18.90;96.60
12504;DHT22;6316;48.118;-1.690;2022-07-22T05:24:00;19.00;96.70
12504;DHT22;6316;48.118;-1.690;2022-07-22T05:26:26;19.00;96.70
12504;DHT22;6316;48.118;-1.690;2022-07-22T05:28:54;19.00;96.70
12504;DHT22;6316;48.118;-1.690;2022-07-22T05:31:20;19.00;96.70
12504;DHT22;6316;48.118;-1.690;2022-07-22T05:33:45;19.00;96.70
12504;DHT22;6316;48.118;-1.690;2022-07-22T05:36:11;19.00;96.90
12504;DHT22;6316;48.118;-1.690;2022-07-22T05:38:37;19.00;96.70
12504;DHT22;6316;48.118;-1.690;2022-07-22T05:41:03;19.10;96.80
12504;DHT22;6316;48.118;-1.690;2022-07-22T05:43:28;19.10;96.80
12504;DHT22;6316;48.118;-1.690;2022-07-22T05:45:54;19.10;96.80
12504;DHT22;6316;48.118;-1.690;2022-07-22T05:48:20;19.20;96.80
12504;DHT22;6316;48.118;-1.690;2022-07-22T05:50:46;19.30;96.90
12504;DHT22;6316;48.118;-1.690;2022-07-22T05:53:12;19.30;96.80
12504;DHT22;6316;48.118;-1.690;2022-07-22T05:55:38;19.40;96.80
12504;DHT22;6316;48.118;-1.690;2022-07-22T05:58:04;19.50;96.80
12504;DHT22;6316;48.118;-1.690;2022-07-22T06:00:29;19.60;96.80
12504;DHT22;6316;48.118;-1.690;2022-07-22T06:02:55;19.70;96.80
12504;DHT22;6316;48.118;-1.690;2022-07-22T06:05:21;19.80;96.80
12504;DHT22;6316;48.118;-1.690;2022-07-22T06:07:47;19.90;96.80
12504;DHT22;6316;48.118;-1.690;2022-07-22T06:10:13;20.00;96.80
12504;DHT22;6316;48.118;-1.690;2022-07-22T06:12:39;20.00;96.70
12504;DHT22;6316;48.118;-1.690;2022-07-22T06:15:05;20.00;96.80
12504;DHT22;6316;48.118;-1.690;2022-07-22T06:17:31;20.00;96.70
12504;DHT22;6316;48.118;-1.690;2022-07-22T06:19:57;20.00;96.70
12504;DHT22;6316;48.118;-1.690;2022-07-22T06:22:22;20.10;96.80
12504;DHT22;6316;48.118;-1.690;2022-07-22T06:24:48;20.10;96.80
12504;DHT22;6316;48.118;-1.690;2022-07-22T06:27:14;20.10;96.80
12504;DHT22;6316;48.118;-1.690;2022-07-22T06:29:39;20.20;96.80
12504;DHT22;6316;48.118;-1.690;2022-07-22T06:32:06;20.20;96.80
12504;DHT22;6316;48.118;-1.690;2022-07-22T06:34:32;20.30;96.80
12504;DHT22;6316;48.118;-1.690;2022-07-22T06:36:58;20.40;96.80
12504;DHT22;6316;48.118;-1.690;2022-07-22T06:39:24;20.50;96.80
12504;DHT22;6316;48.118;-1.690;2022-07-22T06:41:49;20.60;96.80
12504;DHT22;6316;48.118;-1.690;2022-07-22T06:44:15;20.70;96.80
12504;DHT22;6316;48.118;-1.690;2022-07-22T06:46:41;20.70;96.70
12504;DHT22;6316;48.118;-1.690;2022-07-22T06:49:07;20.90;96.70
12504;DHT22;6316;48.118;-1.690;2022-07-22T06:51:32;21.10;96.80
12504;DHT22;6316;48.118;-1.690;2022-07-22T06:53:59;21.70;96.70
12504;DHT22;6316;48.118;-1.690;2022-07-22T06:56:25;22.10;96.40
12504;DHT22;6316;48.118;-1.690;2022-07-22T06:58:51;22.20;96.20
12504;DHT22;6316;48.118;-1.690;2022-07-22T07:01:17;22.20;96.10
12504;DHT22;6316;48.118;-1.690;2022-07-22T07:03:42;22.00;96.00
12504;DHT22;6316;48.118;-1.690;2022-07-22T07:06:11;21.90;96.40
12504;DHT22;6316;48.118;-1.690;2022-07-22T07:08:37;21.80;96.20
12504;DHT22;6316;48.118;-1.690;2022-07-22T07:11:03;21.70;96.30
12504;DHT22;6316;48.118;-1.690;2022-07-22T07:13:29;21.60;96.40
12504;DHT22;6316;48.118;-1.690;2022-07-22T07:15:55;21.50;96.40
12504;DHT22;6316;48.118;-1.690;2022-07-22T07:18:21;21.50;96.50
12504;DHT22;6316;48.118;-1.690;2022-07-22T07:20:47;21.50;96.50
12504;DHT22;6316;48.118;-1.690;2022-07-22T07:23:12;21.60;96.60
12504;DHT22;6316;48.118;-1.690;2022-07-22T07:25:38;21.70;96.60
12504;DHT22;6316;48.118;-1.690;2022-07-22T07:28:04;21.60;96.50
12504;DHT22;6316;48.118;-1.690;2022-07-22T07:30:30;21.60;96.50
12504;DHT22;6316;48.118;-1.690;2022-07-22T07:32:56;21.60;96.60
12504;DHT22;6316;48.118;-1.690;2022-07-22T07:35:21;21.50;96.60
12504;DHT22;6316;48.118;-1.690;2022-07-22T07:37:47;21.50;96.60
12504;DHT22;6316;48.118;-1.690;2022-07-22T07:40:14;21.50;96.70
12504;DHT22;6316;48.118;-1.690;2022-07-22T07:42:40;21.70;96.70
12504;DHT22;6316;48.118;-1.690;2022-07-22T07:45:06;21.80;96.70
12504;DHT22;6316;48.118;-1.690;2022-07-22T07:47:31;21.90;96.60
12504;DHT22;6316;48.118;-1.690;2022-07-22T07:49:57;22.10;96.60
12504;DHT22;6316;48.118;-1.690;2022-07-22T07:52:26;22.20;96.50
12504;DHT22;6316;48.118;-1.690;2022-07-22T07:54:51;22.30;96.50
12504;DHT22;6316;48.118;-1.690;2022-07-22T07:57:18;22.30;96.40
12504;DHT22;6316;48.118;-1.690;2022-07-22T07:59:44;22.20;96.50
12504;DHT22;6316;48.118;-1.690;2022-07-22T08:02:10;22.10;96.50
12504;DHT22;6316;48.118;-1.690;2022-07-22T08:04:36;21.90;96.50
12504;DHT22;6316;48.118;-1.690;2022-07-22T08:07:03;21.80;96.60
12504;DHT22;6316;48.118;-1.690;2022-07-22T08:09:29;21.70;96.70
12504;DHT22;6316;48.118;-1.690;2022-07-22T08:11:54;21.60;96.80
12504;DHT22;6316;48.118;-1.690;2022-07-22T08:14:20;21.60;96.90
12504;DHT22;6316;48.118;-1.690;2022-07-22T08:16:46;21.50;96.90
12504;DHT22;6316;48.118;-1.690;2022-07-22T08:19:12;21.50;96.90
12504;DHT22;6316;48.118;-1.690;2022-07-22T08:21:37;21.50;97.00
12504;DHT22;6316;48.118;-1.690;2022-07-22T08:24:03;21.50;97.00
12504;DHT22;6316;48.118;-1.690;2022-07-22T08:26:29;21.50;97.00
12504;DHT22;6316;48.118;-1.690;2022-07-22T08:28:54;21.40;97.00
12504;DHT22;6316;48.118;-1.690;2022-07-22T08:31:20;21.40;97.00
12504;DHT22;6316;48.118;-1.690;2022-07-22T08:33:46;21.40;97.10
12504;DHT22;6316;48.118;-1.690;2022-07-22T08:36:11;21.40;97.10
12504;DHT22;6316;48.118;-1.690;2022-07-22T08:38:37;21.40;97.10
12504;DHT22;6316;48.118;-1.690;2022-07-22T08:41:05;21.40;97.10
12504;DHT22;6316;48.118;-1.690;2022-07-22T08:43:35;21.30;97.10
12504;DHT22;6316;48.118;-1.690;2022-07-22T08:46:02;21.40;97.10
12504;DHT22;6316;48.118;-1.690;2022-07-22T08:48:27;21.40;97.10
12504;DHT22;6316;48.118;-1.690;2022-07-22T08:50:53;21.30;97.10
12504;DHT22;6316;48.118;-1.690;2022-07-22T08:53:19;21.30;97.20
12504;DHT22;6316;48.118;-1.690;2022-07-22T08:55:46;21.20;97.50
12504;DHT22;6316;48.118;-1.690;2022-07-22T08:58:12;21.20;97.20
12504;DHT22;6316;48.118;-1.690;2022-07-22T09:00:38;21.20;97.20
12504;DHT22;6316;48.118;-1.690;2022-07-22T09:03:19;21.20;97.30
12504;DHT22;6316;48.118;-1.690;2022-07-22T09:05:49;21.20;97.30
12504;DHT22;6316;48.118;-1.690;2022-07-22T09:08:15;21.20;97.30
12504;DHT22;6316;48.118;-1.690;2022-07-22T09:10:41;21.20;97.30
12504;DHT22;6316;48.118;-1.690;2022-07-22T09:13:09;21.20;97.30
12504;DHT22;6316;48.118;-1.690;2022-07-22T09:15:38;21.20;97.40
12504;DHT22;6316;48.118;-1.690;2022-07-22T09:18:06;21.20;97.40
12504;DHT22;6316;48.118;-1.690;2022-07-22T09:20:34;21.20;97.40
12504;DHT22;6316;48.118;-1.690;2022-07-22T09:22:59;21.20;97.40
12504;DHT22;6316;48.118;-1.690;2022-07-22T09:25:30;21.30;97.40
12504;DHT22;6316;48.118;-1.690;2022-07-22T09:30:32;21.30;97.40
12504;DHT22;6316;48.118;-1.690;2022-07-22T09:32:58;21.40;97.40
12504;DHT22;6316;48.118;-1.690;2022-07-22T09:35:24;21.40;97.40
12504;DHT22;6316;48.118;-1.690;2022-07-22T09:40:38;21.30;97.40
12504;DHT22;6316;48.118;-1.690;2022-07-22T09:43:07;21.40;97.50
12504;DHT22;6316;48.118;-1.690;2022-07-22T09:45:44;21.30;97.50
12504;DHT22;6316;48.118;-1.690;2022-07-22T09:48:11;21.20;97.50
12504;DHT22;6316;48.118;-1.690;2022-07-22T09:50:37;21.20;97.50
12504;DHT22;6316;48.118;-1.690;2022-07-22T09:53:02;21.10;97.60
12504;DHT22;6316;48.118;-1.690;2022-07-22T09:55:29;21.10;97.70
12504;DHT22;6316;48.118;-1.690;2022-07-22T09:57:56;21.00;97.70
12504;DHT22;6316;48.118;-1.690;2022-07-22T10:00:27;21.00;97.80
12504;DHT22;6316;48.118;-1.690;2022-07-22T10:02:57;21.00;97.90
12504;DHT22;6316;48.118;-1.690;2022-07-22T10:05:25;21.10;97.90
12504;DHT22;6316;48.118;-1.690;2022-07-22T10:07:52;21.10;97.90
12504;DHT22;6316;48.118;-1.690;2022-07-22T10:10:20;21.20;98.00
12504;DHT22;6316;48.118;-1.690;2022-07-22T10:12:49;21.20;97.90
12504;DHT22;6316;48.118;-1.690;2022-07-22T10:15:15;21.30;97.90
12504;DHT22;6316;48.118;-1.690;2022-07-22T10:17:43;21.30;97.90
12504;DHT22;6316;48.118;-1.690;2022-07-22T10:20:10;21.40;97.90
12504;DHT22;6316;48.118;-1.690;2022-07-22T10:25:06;21.40;97.90
12504;DHT22;6316;48.118;-1.690;2022-07-22T10:27:44;21.40;97.90
12504;DHT22;6316;48.118;-1.690;2022-07-22T10:30:10;21.40;97.90
12504;DHT22;6316;48.118;-1.690;2022-07-22T10:32:36;21.30;98.00
12504;DHT22;6316;48.118;-1.690;2022-07-22T10:40:18;21.30;98.00
12504;DHT22;6316;48.118;-1.690;2022-07-22T10:43:03;21.30;98.00
12504;DHT22;6316;48.118;-1.690;2022-07-22T10:45:33;21.30;98.00
12504;DHT22;6316;48.118;-1.690;2022-07-22T10:48:02;21.30;98.00
12504;DHT22;6316;48.118;-1.690;2022-07-22T10:55:33;21.40;98.10
12504;DHT22;6316;48.118;-1.690;2022-07-22T10:57:59;21.40;98.10
12504;DHT22;6316;48.118;-1.690;2022-07-22T11:00:25;21.40;98.10
12504;DHT22;6316;48.118;-1.690;2022-07-22T11:02:51;21.40;98.10
12504;DHT22;6316;48.118;-1.690;2022-07-22T11:05:27;21.40;98.10
12504;DHT22;6316;48.118;-1.690;2022-07-22T11:07:54;21.40;98.20
12504;DHT22;6316;48.118;-1.690;2022-07-22T11:10:20;21.40;98.20
12504;DHT22;6316;48.118;-1.690;2022-07-22T11:12:47;21.40;98.20
12504;DHT22;6316;48.118;-1.690;2022-07-22T11:15:13;21.40;98.20
12504;DHT22;6316;48.118;-1.690;2022-07-22T11:17:39;21.50;98.30
12504;DHT22;6316;48.118;-1.690;2022-07-22T11:20:10;21.50;98.30
12504;DHT22;6316;48.118;-1.690;2022-07-22T11:22:37;21.60;98.30
12504;DHT22;6316;48.118;-1.690;2022-07-22T11:25:05;21.80;98.40
12504;DHT22;6316;48.118;-1.690;2022-07-22T11:27:32;22.00;98.40
12504;DHT22;6316;48.118;-1.690;2022-07-22T11:29:57;22.20;98.30
12504;DHT22;6316;48.118;-1.690;2022-07-22T11:32:25;22.50;98.20
12504;DHT22;6316;48.118;-1.690;2022-07-22T11:34:51;22.60;98.10
12504;DHT22;6316;48.118;-1.690;2022-07-22T11:37:22;22.70;97.90
12504;DHT22;6316;48.118;-1.690;2022-07-22T11:39:49;22.70;97.90
12504;DHT22;6316;48.118;-1.690;2022-07-22T11:42:16;22.70;97.90
12504;DHT22;6316;48.118;-1.690;2022-07-22T11:44:42;22.70;97.90
12504;DHT22;6316;48.118;-1.690;2022-07-22T11:47:08;22.80;98.00
12504;DHT22;6316;48.118;-1.690;2022-07-22T11:49:36;22.90;97.90
12504;DHT22;6316;48.118;-1.690;2022-07-22T11:52:04;23.00;97.90
12504;DHT22;6316;48.118;-1.690;2022-07-22T11:54:30;23.10;97.80
12504;DHT22;6316;48.118;-1.690;2022-07-22T11:56:55;23.20;97.80
12504;DHT22;6316;48.118;-1.690;2022-07-22T11:59:22;23.20;97.70
12504;DHT22;6316;48.118;-1.690;2022-07-22T12:01:48;23.10;97.70
12504;DHT22;6316;48.118;-1.690;2022-07-22T12:04:16;23.10;97.70
12504;DHT22;6316;48.118;-1.690;2022-07-22T12:06:43;23.10;97.70
12504;DHT22;6316;48.118;-1.690;2022-07-22T12:09:15;23.10;97.70
12504;DHT22;6316;48.118;-1.690;2022-07-22T12:11:50;23.10;97.80
12504;DHT22;6316;48.118;-1.690;2022-07-22T12:14:18;23.10;97.80
12504;DHT22;6316;48.118;-1.690;2022-07-22T12:19:22;23.10;97.70
12504;DHT22;6316;48.118;-1.690;2022-07-22T12:21:54;23.20;97.70
12504;DHT22;6316;48.118;-1.690;2022-07-22T12:24:31;23.20;97.70
12504;DHT22;6316;48.118;-1.690;2022-07-22T12:27:00;23.20;97.70
12504;DHT22;6316;48.118;-1.690;2022-07-22T12:29:30;23.20;97.70
12504;DHT22;6316;48.118;-1.690;2022-07-22T12:31:59;23.20;97.60
12504;DHT22;6316;48.118;-1.690;2022-07-22T12:34:47;23.20;97.60
12504;DHT22;6316;48.118;-1.690;2022-07-22T12:37:24;23.30;97.60
12504;DHT22;6316;48.118;-1.690;2022-07-22T12:39:56;23.20;97.50
12504;DHT22;6316;48.118;-1.690;2022-07-22T12:42:24;23.30;97.50
12504;DHT22;6316;48.118;-1.690;2022-07-22T12:44:52;23.30;97.50
12504;DHT22;6316;48.118;-1.690;2022-07-22T12:47:37;23.30;97.50
12504;DHT22;6316;48.118;-1.690;2022-07-22T12:53:01;23.30;97.50
12504;DHT22;6316;48.118;-1.690;2022-07-22T12:55:28;23.30;97.40
12504;DHT22;6316;48.118;-1.690;2022-07-22T12:57:54;23.30;97.40
12504;DHT22;6316;48.118;-1.690;2022-07-22T13:00:23;23.30;97.40
12504;DHT22;6316;48.118;-1.690;2022-07-22T13:02:50;23.30;97.40
12504;DHT22;6316;48.118;-1.690;2022-07-22T13:05:16;23.30;97.30
12504;DHT22;6316;48.118;-1.690;2022-07-22T13:07:43;23.40;97.30
12504;DHT22;6316;48.118;-1.690;2022-07-22T13:10:10;23.40;97.30
12504;DHT22;6316;48.118;-1.690;2022-07-22T13:12:36;23.40;97.20
12504;DHT22;6316;48.118;-1.690;2022-07-22T13:15:02;23.40;97.20
12504;DHT22;6316;48.118;-1.690;2022-07-22T13:17:28;23.50;97.20
12504;DHT22;6316;48.118;-1.690;2022-07-22T13:19:53;23.50;97.10
12504;DHT22;6316;48.118;-1.690;2022-07-22T13:22:19;23.50;97.10
12504;DHT22;6316;48.118;-1.690;2022-07-22T13:24:45;23.60;97.10
12504;DHT22;6316;48.118;-1.690;2022-07-22T13:27:10;23.70;97.00
12504;DHT22;6316;48.118;-1.690;2022-07-22T13:29:36;23.80;97.00
12504;DHT22;6316;48.118;-1.690;2022-07-22T13:32:02;23.80;96.90
12504;DHT22;6316;48.118;-1.690;2022-07-22T13:34:27;23.90;96.90
12504;DHT22;6316;48.118;-1.690;2022-07-22T13:36:53;23.80;96.80
12504;DHT22;6316;48.118;-1.690;2022-07-22T13:39:19;23.80;96.80
12504;DHT22;6316;48.118;-1.690;2022-07-22T13:41:45;23.80;96.80
12504;DHT22;6316;48.118;-1.690;2022-07-22T13:44:10;23.80;96.80
12504;DHT22;6316;48.118;-1.690;2022-07-22T13:46:36;23.70;96.80
12504;DHT22;6316;48.118;-1.690;2022-07-22T13:49:02;23.70;96.80
12504;DHT22;6316;48.118;-1.690;2022-07-22T13:51:28;23.70;96.80
12504;DHT22;6316;48.118;-1.690;2022-07-22T13:53:54;23.60;96.80
12504;DHT22;6316;48.118;-1.690;2022-07-22T13:56:19;23.60;96.80
12504;DHT22;6316;48.118;-1.690;2022-07-22T13:58:45;23.50;97.10
12504;DHT22;6316;48.118;-1.690;2022-07-22T14:01:11;23.50;96.80
12504;DHT22;6316;48.118;-1.690;2022-07-22T14:03:37;23.50;96.80
12504;DHT22;6316;48.118;-1.690;2022-07-22T14:06:04;23.50;96.70
12504;DHT22;6316;48.118;-1.690;2022-07-22T14:08:30;23.50;96.70
12504;DHT22;6316;48.118;-1.690;2022-07-22T14:10:56;23.50;96.70
12504;DHT22;6316;48.118;-1.690;2022-07-22T14:13:22;23.50;96.60
12504;DHT22;6316;48.118;-1.690;2022-07-22T14:15:48;23.50;96.60
12504;DHT22;6316;48.118;-1.690;2022-07-22T14:18:13;23.50;96.60
12504;DHT22;6316;48.118;-1.690;2022-07-22T14:20:39;23.50;96.60
12504;DHT22;6316;48.118;-1.690;2022-07-22T14:23:06;23.50;96.60
12504;DHT22;6316;48.118;-1.690;2022-07-22T14:25:33;23.50;96.50
12504;DHT22;6316;48.118;-1.690;2022-07-22T14:27:58;23.60;96.50
12504;DHT22;6316;48.118;-1.690;2022-07-22T14:30:24;23.60;96.40
12504;DHT22;6316;48.118;-1.690;2022-07-22T14:32:50;23.70;96.40
12504;DHT22;6316;48.118;-1.690;2022-07-22T14:35:16;23.70;96.30
12504;DHT22;6316;48.118;-1.690;2022-07-22T14:37:41;23.70;96.30
12504;DHT22;6316;48.118;-1.690;2022-07-22T14:40:08;23.70;96.20
12504;DHT22;6316;48.118;-1.690;2022-07-22T14:42:33;23.70;96.20
12504;DHT22;6316;48.118;-1.690;2022-07-22T14:44:59;23.70;96.10
12504;DHT22;6316;48.118;-1.690;2022-07-22T14:47:25;23.70;96.10
12504;DHT22;6316;48.118;-1.690;2022-07-22T14:49:52;23.70;96.10
12504;DHT22;6316;48.118;-1.690;2022-07-22T14:52:17;23.70;96.10
12504;DHT22;6316;48.118;-1.690;2022-07-22T14:54:43;23.70;96.10
12504;DHT22;6316;48.118;-1.690;2022-07-22T14:57:09;23.70;96.00
12504;DHT22;6316;48.118;-1.690;2022-07-22T14:59:34;23.80;96.00
12504;DHT22;6316;48.118;-1.690;2022-07-22T15:02:00;23.70;95.90
12504;DHT22;6316;48.118;-1.690;2022-07-22T15:04:26;23.80;95.90
12504;DHT22;6316;48.118;-1.690;2022-07-22T15:06:51;23.80;95.80
12504;DHT22;6316;48.118;-1.690;2022-07-22T15:09:17;23.80;95.70
12504;DHT22;6316;48.118;-1.690;2022-07-22T15:11:43;23.80;95.70
12504;DHT22;6316;48.118;-1.690;2022-07-22T15:14:08;23.70;95.70
12504;DHT22;6316;48.118;-1.690;2022-07-22T15:16:34;23.70;95.70
12504;DHT22;6316;48.118;-1.690;2022-07-22T15:19:00;23.80;95.70
12504;DHT22;6316;48.118;-1.690;2022-07-22T15:21:25;23.80;95.60
12504;DHT22;6316;48.118;-1.690;2022-07-22T15:23:51;23.80;95.60
12504;DHT22;6316;48.118;-1.690;2022-07-22T15:26:17;23.80;95.60
12504;DHT22;6316;48.118;-1.690;2022-07-22T15:28:42;23.80;95.60
12504;DHT22;6316;48.118;-1.690;2022-07-22T15:31:09;23.90;95.60
12504;DHT22;6316;48.118;-1.690;2022-07-22T15:33:36;23.90;95.50
12504;DHT22;6316;48.118;-1.690;2022-07-22T15:36:02;23.90;95.50
12504;DHT22;6316;48.118;-1.690;2022-07-22T15:38:28;23.90;95.40
12504;DHT22;6316;48.118;-1.690;2022-07-22T15:40:53;23.90;95.40
12504;DHT22;6316;48.118;-1.690;2022-07-22T15:43:19;23.80;95.40
12504;DHT22;6316;48.118;-1.690;2022-07-22T15:45:45;23.80;95.40
12504;DHT22;6316;48.118;-1.690;2022-07-22T15:48:10;23.80;95.40